createdAt,value
2023-05-17T00:03:07.374Z,101698.50
2023-05-17T00:08:09.113Z,101693.59
2023-05-17T00:13:10.692Z,101688.63
2023-05-17T00:18:12.328Z,101686.34
2023-05-17T00:23:14.152Z,101696.78
2023-05-17T00:28:15.830Z,101692.47
2023-05-17T00:33:17.425Z,101695.28
2023-05-17T00:38:19.055Z,101695.81
2023-05-17T00:43:20.775Z,101695.97
2023-05-17T00:48:22.781Z,101699.09
2023-05-17T00:53:26.366Z,101699.69
2023-05-17T00:58:28.066Z,101710.25
2023-05-17T01:03:29.767Z,101715.47
2023-05-17T01:08:32.254Z,101711.47
2023-05-17T01:13:42.288Z,101710.41
2023-05-17T01:18:58.407Z,101719.69
2023-05-17T01:24:28.643Z,101721.94
2023-05-17T01:29:32.088Z,101717.81
2023-05-17T01:34:35.145Z,101723.78
2023-05-17T01:39:37.842Z,101728.66
2023-05-17T01:44:48.464Z,101736.88
2023-05-17T01:49:54.017Z,101736.50
2023-05-17T01:55:10.572Z,101733.91
2023-05-17T02:00:13.856Z,101752.66
2023-05-17T02:05:20.232Z,101759.16
2023-05-17T02:10:22.000Z,101755.78
2023-05-17T02:15:23.593Z,101751.66
2023-05-17T02:20:25.254Z,101752.50
2023-05-17T02:25:27.014Z,101749.44
2023-05-17T02:30:28.854Z,101752.88
2023-05-17T02:35:31.662Z,101748.88
2023-05-17T02:40:33.324Z,101759.19
2023-05-17T02:45:37.582Z,101761.56
2023-05-17T02:50:40.207Z,101763.09
2023-05-17T02:55:41.767Z,101766.75
2023-05-17T03:00:46.593Z,101766.53
2023-05-17T03:05:49.806Z,101759.97
2023-05-17T03:10:51.835Z,101752.69
2023-05-17T03:15:53.742Z,101765.50
2023-05-17T03:20:55.819Z,101770.03
2023-05-17T03:25:57.981Z,101766.75
2023-05-17T03:31:01.455Z,101768.25
2023-05-17T03:36:06.572Z,101775.69
2023-05-17T03:41:08.313Z,101775.69
2023-05-17T03:46:10.231Z,101778.00
2023-05-17T03:51:12.335Z,101786.94
2023-05-17T03:56:14.215Z,101795.31
2023-05-17T04:01:16.423Z,101802.34
2023-05-17T04:06:18.302Z,101804.50
2023-05-17T04:11:20.013Z,101810.94
2023-05-17T04:16:21.602Z,101818.16
2023-05-17T04:21:23.396Z,101808.44
2023-05-17T04:26:26.650Z,101821.13
2023-05-17T04:31:28.197Z,101825.81
2023-05-17T04:36:29.875Z,101823.34
2023-05-17T04:41:31.874Z,101839.84
2023-05-17T04:46:34.338Z,101848.25
2023-05-17T04:51:36.163Z,101851.28
2023-05-17T04:56:37.935Z,101859.47
2023-05-17T05:01:44.573Z,101856.06
2023-05-17T05:06:46.448Z,101860.00
2023-05-17T05:11:49.821Z,101861.66
2023-05-17T05:16:51.735Z,101885.84
2023-05-17T05:21:53.609Z,101877.91
2023-05-17T05:26:55.335Z,101880.13
2023-05-17T05:31:58.060Z,101882.28
2023-05-17T05:37:00.349Z,101889.34
2023-05-17T05:42:02.187Z,101894.06
2023-05-17T05:47:04.978Z,101899.75
2023-05-17T05:52:06.663Z,101895.16
2023-05-17T05:57:08.417Z,101887.22
2023-05-17T06:02:10.374Z,101892.19
2023-05-17T06:07:12.859Z,101912.84
2023-05-17T06:12:14.420Z,101916.66
2023-05-17T06:17:15.969Z,101921.00
2023-05-17T06:22:17.582Z,101932.91
2023-05-17T06:27:20.400Z,101938.56
2023-05-17T06:32:21.991Z,101939.78
2023-05-17T06:37:24.505Z,101936.66
2023-05-17T06:42:26.043Z,101937.13
2023-05-17T06:47:27.645Z,101942.38
2023-05-17T06:52:29.407Z,101955.84
2023-05-17T06:57:31.212Z,101954.91
2023-05-17T07:02:34.599Z,101949.38
2023-05-17T07:07:36.490Z,101953.66
2023-05-17T07:12:38.052Z,101959.72
2023-05-17T07:17:40.412Z,101966.53
2023-05-17T07:22:42.172Z,101976.97
2023-05-17T07:27:43.703Z,101977.41
2023-05-17T07:32:45.417Z,101975.19
2023-05-17T07:37:46.995Z,101978.09
2023-05-17T07:42:48.721Z,101981.31
2023-05-17T07:47:50.387Z,101982.59
2023-05-17T07:52:52.051Z,101982.44
2023-05-17T07:57:53.700Z,101984.38
2023-05-17T08:02:56.763Z,101985.53
2023-05-17T08:07:58.427Z,101986.44
2023-05-17T08:13:00.043Z,101999.56
2023-05-17T08:18:04.413Z,101991.38
2023-05-17T08:23:06.509Z,101991.25
2023-05-17T08:28:08.332Z,101991.19
2023-05-17T08:33:10.363Z,102005.22
2023-05-17T08:38:11.947Z,101997.50
2023-05-17T08:43:14.643Z,102002.28
2023-05-17T08:48:16.453Z,102002.38
2023-05-17T08:53:18.475Z,102013.38
2023-05-17T08:58:23.709Z,102011.69
2023-05-17T09:03:26.644Z,102011.66
2023-05-17T09:08:28.517Z,102014.06
2023-05-17T09:13:30.187Z,102012.97
2023-05-17T09:18:32.541Z,102002.19
2023-05-17T09:23:34.166Z,102000.22
2023-05-17T09:28:40.633Z,102003.59
2023-05-17T09:33:45.763Z,102003.84
2023-05-17T09:38:56.548Z,102017.38
2023-05-17T09:44:00.648Z,102012.72
2023-05-17T09:49:03.343Z,102012.34
2023-05-17T09:54:07.154Z,102004.13
2023-05-17T09:59:15.968Z,101989.03
2023-05-17T10:04:19.764Z,101996.00
2023-05-17T10:09:22.883Z,101995.69
2023-05-17T10:14:30.330Z,101989.09
2023-05-17T10:19:32.863Z,101978.97
2023-05-17T10:24:35.794Z,101983.72
2023-05-17T10:29:39.131Z,101993.47
2023-05-17T10:34:40.804Z,101984.00
2023-05-17T10:39:42.388Z,101984.72
2023-05-17T10:44:44.036Z,101984.25
2023-05-17T10:49:45.676Z,101986.31
2023-05-17T10:54:49.075Z,101976.31
2023-05-17T10:59:59.482Z,101980.38
2023-05-17T11:05:01.372Z,101968.63
2023-05-17T11:10:11.608Z,101961.84
2023-05-17T11:15:16.558Z,101958.41
2023-05-17T11:20:24.145Z,101952.81
2023-05-17T11:25:31.646Z,101951.81
2023-05-17T11:30:33.531Z,101954.41
2023-05-17T11:35:37.219Z,101955.41
2023-05-17T11:40:38.879Z,101940.97
2023-05-17T11:45:47.980Z,101947.47
2023-05-17T11:50:52.189Z,101953.25
2023-05-17T11:55:53.771Z,101949.72
2023-05-17T12:00:59.144Z,101933.25
2023-05-17T12:06:06.921Z,101942.00
2023-05-17T12:11:15.634Z,101951.78
2023-05-17T12:16:21.778Z,101943.75
2023-05-17T12:21:23.541Z,101930.53
2023-05-17T12:26:25.178Z,101936.34
2023-05-17T12:31:34.683Z,101933.06
2023-05-17T12:36:36.838Z,101921.25
2023-05-17T12:41:39.718Z,101932.28
2023-05-17T12:46:41.443Z,101935.59
2023-05-17T12:51:46.598Z,101928.00
2023-05-17T12:56:48.227Z,101928.81
2023-05-17T13:01:51.692Z,101926.03
2023-05-17T13:06:56.202Z,101928.78
2023-05-17T13:11:59.529Z,101930.41
2023-05-17T13:17:05.299Z,101933.09
2023-05-17T13:22:07.372Z,101925.13
2023-05-17T13:27:09.661Z,101931.00
2023-05-17T13:32:13.125Z,101926.00
2023-05-17T13:37:14.710Z,101929.97
2023-05-17T13:42:16.297Z,101920.53
2023-05-17T13:47:17.886Z,101922.91
2023-05-17T13:52:19.434Z,101924.34
2023-05-17T13:57:21.058Z,101922.44
2023-05-17T14:02:22.657Z,101913.28
2023-05-17T14:07:24.365Z,101916.13
2023-05-17T14:12:25.935Z,101915.00
2023-05-17T14:17:27.559Z,101910.69
2023-05-17T14:22:29.211Z,101906.81
2023-05-17T14:27:30.819Z,101910.34
2023-05-17T14:32:32.443Z,101912.88
2023-05-17T14:37:34.211Z,101903.22
2023-05-17T14:42:35.909Z,101894.50
2023-05-17T14:47:37.534Z,101886.53
2023-05-17T14:52:39.122Z,101895.66
2023-05-17T14:57:40.685Z,101885.53
2023-05-17T15:02:42.255Z,101896.22
2023-05-17T15:07:43.928Z,101892.44
2023-05-17T15:12:45.493Z,101882.41
2023-05-17T15:17:47.050Z,101884.84
2023-05-17T15:22:48.638Z,101878.16
2023-05-17T15:27:50.244Z,101883.59
2023-05-17T15:32:51.811Z,101881.81
2023-05-17T15:37:53.600Z,101879.66
2023-05-17T15:42:55.220Z,101876.16
2023-05-17T15:47:56.775Z,101873.47
2023-05-17T15:52:58.943Z,101882.44
2023-05-17T15:58:01.845Z,101880.00
2023-05-17T16:03:04.219Z,101878.66
2023-05-17T16:08:06.751Z,101874.13
2023-05-17T16:13:08.396Z,101875.63
2023-05-17T16:18:10.167Z,101878.00
2023-05-17T16:23:12.232Z,101873.28
2023-05-17T16:28:13.763Z,101869.63
2023-05-17T16:33:15.481Z,101867.41
2023-05-17T16:38:17.110Z,101878.84
2023-05-17T16:43:18.785Z,101870.63
2023-05-17T16:48:20.681Z,101880.31
2023-05-17T16:53:22.436Z,101878.06
2023-05-17T16:58:24.026Z,101875.47
2023-05-17T17:03:25.700Z,101882.50
2023-05-17T17:08:27.295Z,101876.69
2023-05-17T17:13:28.843Z,101883.41
2023-05-17T17:18:30.381Z,101881.25
2023-05-17T17:23:31.924Z,101888.16
2023-05-17T17:28:33.645Z,101876.88
2023-05-17T17:33:35.939Z,101880.38
2023-05-17T17:38:37.798Z,101881.28
2023-05-17T17:43:39.416Z,101889.56
2023-05-17T17:48:40.991Z,101897.09
2023-05-17T17:53:42.581Z,101892.16
2023-05-17T17:58:44.177Z,101891.34
2023-05-17T18:03:45.745Z,101900.53
2023-05-17T18:08:47.305Z,101899.66
2023-05-17T18:13:48.875Z,101901.75
2023-05-17T18:18:50.519Z,101897.88
2023-05-17T18:23:52.153Z,101896.34
2023-05-17T18:28:53.709Z,101900.09
2023-05-17T18:33:57.208Z,101902.84
2023-05-17T18:38:59.001Z,101906.81
2023-05-17T18:44:00.699Z,101904.44
2023-05-17T18:49:02.272Z,101914.63
2023-05-17T18:54:03.902Z,101912.88
2023-05-17T18:59:05.531Z,101909.47
2023-05-17T19:04:07.141Z,101918.03
2023-05-17T19:09:08.708Z,101920.31
2023-05-17T19:14:10.428Z,101926.56
2023-05-17T19:19:12.136Z,101929.13
2023-05-17T19:24:13.803Z,101933.72
2023-05-17T19:29:15.371Z,101938.84
2023-05-17T19:34:16.929Z,101938.34
2023-05-17T19:39:18.600Z,101959.03
2023-05-17T19:44:20.285Z,101950.75
2023-05-17T19:49:21.886Z,101950.28
2023-05-17T19:54:23.438Z,101948.84
2023-05-17T19:59:25.178Z,101955.94
2023-05-17T20:04:26.715Z,101945.66
2023-05-17T20:09:28.364Z,101942.06
2023-05-17T20:14:29.974Z,101944.09
2023-05-17T20:19:31.653Z,101951.22
2023-05-17T20:24:33.533Z,101959.47
2023-05-17T20:29:35.158Z,101954.03
2023-05-17T20:34:36.718Z,101957.19
2023-05-17T20:39:38.294Z,101955.38
2023-05-17T20:44:39.887Z,101950.63
2023-05-17T20:49:41.413Z,101956.72
2023-05-17T20:54:43.047Z,101961.63
2023-05-17T20:59:44.585Z,101971.19
2023-05-17T21:04:46.244Z,101974.78
2023-05-17T21:09:47.891Z,101981.94
2023-05-17T21:14:59.846Z,101979.97
2023-05-17T21:20:10.184Z,101976.41
2023-05-17T21:25:11.774Z,101984.13
2023-05-17T21:30:13.447Z,101982.75
2023-05-17T21:35:15.047Z,101986.44
2023-05-17T21:40:16.726Z,101989.75
2023-05-17T21:45:18.302Z,101982.50
2023-05-17T21:50:19.959Z,101984.53
2023-05-17T21:55:21.584Z,101984.28
2023-05-17T22:00:23.131Z,101981.09
2023-05-17T22:05:24.730Z,101984.53
2023-05-17T22:10:26.362Z,101986.00
2023-05-17T22:15:28.054Z,101984.22
2023-05-17T22:20:29.967Z,101976.41
2023-05-17T22:25:32.300Z,101976.69
2023-05-17T22:30:34.199Z,101983.34
2023-05-17T22:35:36.060Z,101990.03
2023-05-17T22:40:37.742Z,101986.31
2023-05-17T22:45:41.420Z,101993.41
2023-05-17T22:50:43.107Z,101987.69
2023-05-17T22:55:44.834Z,101987.88
2023-05-17T23:00:47.009Z,101989.28
2023-05-17T23:05:48.770Z,101977.91
2023-05-17T23:10:50.423Z,101987.22
2023-05-17T23:15:52.320Z,101989.03
2023-05-17T23:20:53.921Z,101988.75
2023-05-17T23:25:55.810Z,101990.97
2023-05-17T23:30:57.422Z,101990.59
2023-05-17T23:35:59.073Z,101997.66
2023-05-17T23:41:00.713Z,101984.25
2023-05-17T23:46:02.356Z,101984.84
2023-05-17T23:51:04.462Z,101988.56
2023-05-17T23:56:06.429Z,101993.09
